sensor_id;sensor_type;location;lat;lon;timestamp;P1;durP1;ratioP1;P2;durP2;ratioP2
64186;SDS011;50491;39.484;-8.540;2023-02-08T00:02:06;18.58;;;9.35;;
64186;SDS011;50491;39.484;-8.540;2023-02-08T00:04:06;15.93;;;9.93;;
64186;SDS011;50491;39.484;-8.540;2023-02-08T00:06:07;18.70;;;9.43;;
64186;SDS011;50491;39.484;-8.540;2023-02-08T00:08:08;15.00;;;9.98;;
64186;SDS011;50491;39.484;-8.540;2023-02-08T00:10:09;18.05;;;10.10;;
64186;SDS011;50491;39.484;-8.540;2023-02-08T00:12:10;13.25;;;9.73;;
64186;SDS011;50491;39.484;-8.540;2023-02-08T00:14:29;16.48;;;9.15;;
64186;SDS011;50491;39.484;-8.540;2023-02-08T00:16:48;14.90;;;9.35;;
64186;SDS011;50491;39.484;-8.540;2023-02-08T00:18:48;14.43;;;8.90;;
64186;SDS011;50491;39.484;-8.540;2023-02-08T00:20:50;16.30;;;9.35;;
64186;SDS011;50491;39.484;-8.540;2023-02-08T00:22:52;16.00;;;9.43;;
64186;SDS011;50491;39.484;-8.540;2023-02-08T00:24:53;17.00;;;10.32;;
64186;SDS011;50491;39.484;-8.540;2023-02-08T00:26:54;16.70;;;9.02;;
64186;SDS011;50491;39.484;-8.540;2023-02-08T00:28:54;12.90;;;8.80;;
64186;SDS011;50491;39.484;-8.540;2023-02-08T00:30:55;20.58;;;9.48;;
64186;SDS011;50491;39.484;-8.540;2023-02-08T00:33:14;13.68;;;8.82;;
64186;SDS011;50491;39.484;-8.540;2023-02-08T00:35:15;13.27;;;8.45;;
64186;SDS011;50491;39.484;-8.540;2023-02-08T00:37:16;17.27;;;9.98;;
64186;SDS011;50491;39.484;-8.540;2023-02-08T00:39:17;16.35;;;8.85;;
64186;SDS011;50491;39.484;-8.540;2023-02-08T00:41:17;13.38;;;8.75;;
64186;SDS011;50491;39.484;-8.540;2023-02-08T00:43:38;16.80;;;9.43;;
64186;SDS011;50491;39.484;-8.540;2023-02-08T00:48:16;16.52;;;9.52;;
64186;SDS011;50491;39.484;-8.540;2023-02-08T00:50:17;15.27;;;8.48;;
64186;SDS011;50491;39.484;-8.540;2023-02-08T00:52:18;14.48;;;9.57;;
64186;SDS011;50491;39.484;-8.540;2023-02-08T00:54:19;11.90;;;8.50;;
64186;SDS011;50491;39.484;-8.540;2023-02-08T00:56:20;12.00;;;8.82;;
64186;SDS011;50491;39.484;-8.540;2023-02-08T00:58:21;13.27;;;9.00;;
64186;SDS011;50491;39.484;-8.540;2023-02-08T01:00:34;15.65;;;8.02;;
64186;SDS011;50491;39.484;-8.540;2023-02-08T01:02:36;11.77;;;7.10;;
64186;SDS011;50491;39.484;-8.540;2023-02-08T01:04:56;11.43;;;7.70;;
64186;SDS011;50491;39.484;-8.540;2023-02-08T01:06:57;10.50;;;7.63;;
64186;SDS011;50491;39.484;-8.540;2023-02-08T01:08:57;13.02;;;7.07;;
64186;SDS011;50491;39.484;-8.540;2023-02-08T01:11:24;13.50;;;7.95;;
64186;SDS011;50491;39.484;-8.540;2023-02-08T01:13:25;14.60;;;8.00;;
64186;SDS011;50491;39.484;-8.540;2023-02-08T01:15:26;12.57;;;6.95;;
64186;SDS011;50491;39.484;-8.540;2023-02-08T01:17:45;10.93;;;7.43;;
64186;SDS011;50491;39.484;-8.540;2023-02-08T01:19:52;8.52;;;6.43;;
64186;SDS011;50491;39.484;-8.540;2023-02-08T01:21:53;11.55;;;6.75;;
64186;SDS011;50491;39.484;-8.540;2023-02-08T01:23:54;10.35;;;6.93;;
64186;SDS011;50491;39.484;-8.540;2023-02-08T01:26:20;9.75;;;6.70;;
64186;SDS011;50491;39.484;-8.540;2023-02-08T01:31:09;12.25;;;7.70;;
64186;SDS011;50491;39.484;-8.540;2023-02-08T01:33:11;9.88;;;6.85;;
64186;SDS011;50491;39.484;-8.540;2023-02-08T01:35:12;10.27;;;6.63;;
64186;SDS011;50491;39.484;-8.540;2023-02-08T01:37:12;11.70;;;7.40;;
64186;SDS011;50491;39.484;-8.540;2023-02-08T01:42:34;9.63;;;6.43;;
64186;SDS011;50491;39.484;-8.540;2023-02-08T01:47:20;10.40;;;6.97;;
64186;SDS011;50491;39.484;-8.540;2023-02-08T01:49:28;13.07;;;6.72;;
64186;SDS011;50491;39.484;-8.540;2023-02-08T01:51:31;9.45;;;5.72;;
64186;SDS011;50491;39.484;-8.540;2023-02-08T01:53:33;9.50;;;6.45;;
64186;SDS011;50491;39.484;-8.540;2023-02-08T01:55:36;13.57;;;7.00;;
64186;SDS011;50491;39.484;-8.540;2023-02-08T01:57:39;15.18;;;8.10;;
64186;SDS011;50491;39.484;-8.540;2023-02-08T01:59:44;10.57;;;6.90;;
64186;SDS011;50491;39.484;-8.540;2023-02-08T02:01:48;8.48;;;6.15;;
64186;SDS011;50491;39.484;-8.540;2023-02-08T02:03:50;11.20;;;6.80;;
64186;SDS011;50491;39.484;-8.540;2023-02-08T02:05:53;14.90;;;7.18;;
64186;SDS011;50491;39.484;-8.540;2023-02-08T02:08:13;11.77;;;7.25;;
64186;SDS011;50491;39.484;-8.540;2023-02-08T02:10:34;10.00;;;7.10;;
64186;SDS011;50491;39.484;-8.540;2023-02-08T02:12:35;10.65;;;6.75;;
64186;SDS011;50491;39.484;-8.540;2023-02-08T02:14:37;11.77;;;7.00;;
64186;SDS011;50491;39.484;-8.540;2023-02-08T02:16:38;11.20;;;7.90;;
64186;SDS011;50491;39.484;-8.540;2023-02-08T02:37:46;8.82;;;5.13;;
64186;SDS011;50491;39.484;-8.540;2023-02-08T02:45:05;7.80;;;4.47;;
64186;SDS011;50491;39.484;-8.540;2023-02-08T02:49:35;7.57;;;5.15;;
64186;SDS011;50491;39.484;-8.540;2023-02-08T02:56:59;7.65;;;4.50;;
64186;SDS011;50491;39.484;-8.540;2023-02-08T02:59:27;8.20;;;4.95;;
64186;SDS011;50491;39.484;-8.540;2023-02-08T03:01:34;6.63;;;4.65;;
64186;SDS011;50491;39.484;-8.540;2023-02-08T03:03:35;6.45;;;5.07;;
64186;SDS011;50491;39.484;-8.540;2023-02-08T03:05:36;7.47;;;4.63;;
64186;SDS011;50491;39.484;-8.540;2023-02-08T03:15:14;5.32;;;3.70;;
64186;SDS011;50491;39.484;-8.540;2023-02-08T03:19:21;6.80;;;4.70;;
64186;SDS011;50491;39.484;-8.540;2023-02-08T03:22:10;5.55;;;4.57;;
64186;SDS011;50491;39.484;-8.540;2023-02-08T03:24:21;8.10;;;4.75;;
64186;SDS011;50491;39.484;-8.540;2023-02-08T03:28:58;8.02;;;4.43;;
64186;SDS011;50491;39.484;-8.540;2023-02-08T03:33:22;9.57;;;4.68;;
64186;SDS011;50491;39.484;-8.540;2023-02-08T03:35:34;6.97;;;4.85;;
64186;SDS011;50491;39.484;-8.540;2023-02-08T03:37:40;6.10;;;5.10;;
64186;SDS011;50491;39.484;-8.540;2023-02-08T03:39:44;4.10;;;3.70;;
64186;SDS011;50491;39.484;-8.540;2023-02-08T03:41:47;6.18;;;4.20;;
64186;SDS011;50491;39.484;-8.540;2023-02-08T03:46:56;10.13;;;5.57;;
64186;SDS011;50491;39.484;-8.540;2023-02-08T03:49:21;9.93;;;4.90;;
64186;SDS011;50491;39.484;-8.540;2023-02-08T03:51:46;6.20;;;4.60;;
64186;SDS011;50491;39.484;-8.540;2023-02-08T03:56:27;9.05;;;4.35;;
64186;SDS011;50491;39.484;-8.540;2023-02-08T04:09:02;6.07;;;4.40;;
64186;SDS011;50491;39.484;-8.540;2023-02-08T04:11:03;6.78;;;4.40;;
64186;SDS011;50491;39.484;-8.540;2023-02-08T04:13:03;5.72;;;4.20;;
64186;SDS011;50491;39.484;-8.540;2023-02-08T04:15:23;5.25;;;3.70;;
64186;SDS011;50491;39.484;-8.540;2023-02-08T04:17:51;6.68;;;4.30;;
64186;SDS011;50491;39.484;-8.540;2023-02-08T04:19:58;6.40;;;3.85;;
64186;SDS011;50491;39.484;-8.540;2023-02-08T04:21:59;4.85;;;4.20;;
64186;SDS011;50491;39.484;-8.540;2023-02-08T04:24:00;7.00;;;3.95;;
64186;SDS011;50491;39.484;-8.540;2023-02-08T04:28:38;6.47;;;4.45;;
64186;SDS011;50491;39.484;-8.540;2023-02-08T04:31:04;4.20;;;3.80;;
64186;SDS011;50491;39.484;-8.540;2023-02-08T04:33:05;5.32;;;3.67;;
64186;SDS011;50491;39.484;-8.540;2023-02-08T04:35:24;4.53;;;3.63;;
64186;SDS011;50491;39.484;-8.540;2023-02-08T04:37:30;5.22;;;3.95;;
64186;SDS011;50491;39.484;-8.540;2023-02-08T04:39:31;5.00;;;3.83;;
64186;SDS011;50491;39.484;-8.540;2023-02-08T04:41:31;4.32;;;3.72;;
64186;SDS011;50491;39.484;-8.540;2023-02-08T04:43:32;5.45;;;3.60;;
64186;SDS011;50491;39.484;-8.540;2023-02-08T04:45:32;5.95;;;3.30;;
64186;SDS011;50491;39.484;-8.540;2023-02-08T04:47:39;6.10;;;3.42;;
64186;SDS011;50491;39.484;-8.540;2023-02-08T04:49:39;6.72;;;4.07;;
64186;SDS011;50491;39.484;-8.540;2023-02-08T04:51:40;7.40;;;3.92;;
64186;SDS011;50491;39.484;-8.540;2023-02-08T04:53:59;6.22;;;3.90;;
64186;SDS011;50491;39.484;-8.540;2023-02-08T04:56:00;5.03;;;3.45;;
64186;SDS011;50491;39.484;-8.540;2023-02-08T04:58:19;5.35;;;4.00;;
64186;SDS011;50491;39.484;-8.540;2023-02-08T05:00:44;6.25;;;4.18;;
64186;SDS011;50491;39.484;-8.540;2023-02-08T05:02:45;4.97;;;3.83;;
64186;SDS011;50491;39.484;-8.540;2023-02-08T05:04:46;8.15;;;3.67;;
64186;SDS011;50491;39.484;-8.540;2023-02-08T05:06:46;6.72;;;3.97;;
64186;SDS011;50491;39.484;-8.540;2023-02-08T05:08:47;6.88;;;3.92;;
64186;SDS011;50491;39.484;-8.540;2023-02-08T05:10:48;4.28;;;3.45;;
64186;SDS011;50491;39.484;-8.540;2023-02-08T05:12:48;5.60;;;3.83;;
64186;SDS011;50491;39.484;-8.540;2023-02-08T05:15:08;6.07;;;4.05;;
64186;SDS011;50491;39.484;-8.540;2023-02-08T05:17:08;4.82;;;3.70;;
64186;SDS011;50491;39.484;-8.540;2023-02-08T05:19:09;6.68;;;4.40;;
64186;SDS011;50491;39.484;-8.540;2023-02-08T05:21:10;5.75;;;4.35;;
64186;SDS011;50491;39.484;-8.540;2023-02-08T05:23:29;5.80;;;3.85;;
64186;SDS011;50491;39.484;-8.540;2023-02-08T05:25:31;5.72;;;4.22;;
64186;SDS011;50491;39.484;-8.540;2023-02-08T05:27:32;4.90;;;3.40;;
64186;SDS011;50491;39.484;-8.540;2023-02-08T05:29:33;4.30;;;3.67;;
64186;SDS011;50491;39.484;-8.540;2023-02-08T05:31:34;3.55;;;3.25;;
64186;SDS011;50491;39.484;-8.540;2023-02-08T05:33:39;5.15;;;3.35;;
64186;SDS011;50491;39.484;-8.540;2023-02-08T05:35:40;5.65;;;2.92;;
64186;SDS011;50491;39.484;-8.540;2023-02-08T05:37:41;6.15;;;3.67;;
64186;SDS011;50491;39.484;-8.540;2023-02-08T05:39:42;4.82;;;4.13;;
64186;SDS011;50491;39.484;-8.540;2023-02-08T05:41:43;4.93;;;3.17;;
64186;SDS011;50491;39.484;-8.540;2023-02-08T05:43:43;4.05;;;3.38;;
64186;SDS011;50491;39.484;-8.540;2023-02-08T05:46:10;3.45;;;3.03;;
64186;SDS011;50491;39.484;-8.540;2023-02-08T05:48:10;6.18;;;3.70;;
64186;SDS011;50491;39.484;-8.540;2023-02-08T05:50:11;3.92;;;3.22;;
64186;SDS011;50491;39.484;-8.540;2023-02-08T05:52:37;3.63;;;2.83;;
64186;SDS011;50491;39.484;-8.540;2023-02-08T05:54:38;5.82;;;3.83;;
64186;SDS011;50491;39.484;-8.540;2023-02-08T05:56:38;6.60;;;3.70;;
64186;SDS011;50491;39.484;-8.540;2023-02-08T05:58:39;3.63;;;3.25;;
64186;SDS011;50491;39.484;-8.540;2023-02-08T06:00:58;6.28;;;3.17;;
64186;SDS011;50491;39.484;-8.540;2023-02-08T06:02:59;6.63;;;3.70;;
64186;SDS011;50491;39.484;-8.540;2023-02-08T06:05:24;9.13;;;3.65;;
64186;SDS011;50491;39.484;-8.540;2023-02-08T06:07:25;5.40;;;3.03;;
64186;SDS011;50491;39.484;-8.540;2023-02-08T06:09:25;4.78;;;2.88;;
64186;SDS011;50491;39.484;-8.540;2023-02-08T06:11:26;5.15;;;2.72;;
64186;SDS011;50491;39.484;-8.540;2023-02-08T06:13:27;4.18;;;2.97;;
64186;SDS011;50491;39.484;-8.540;2023-02-08T06:15:28;6.82;;;3.70;;
64186;SDS011;50491;39.484;-8.540;2023-02-08T06:17:47;5.75;;;3.42;;
64186;SDS011;50491;39.484;-8.540;2023-02-08T06:19:48;3.40;;;3.10;;
64186;SDS011;50491;39.484;-8.540;2023-02-08T06:22:07;4.85;;;3.50;;
64186;SDS011;50491;39.484;-8.540;2023-02-08T06:24:08;3.55;;;3.15;;
64186;SDS011;50491;39.484;-8.540;2023-02-08T06:26:10;5.88;;;3.58;;
64186;SDS011;50491;39.484;-8.540;2023-02-08T06:28:10;4.85;;;3.42;;
64186;SDS011;50491;39.484;-8.540;2023-02-08T06:30:11;3.50;;;3.20;;
64186;SDS011;50491;39.484;-8.540;2023-02-08T06:32:18;4.30;;;3.38;;
64186;SDS011;50491;39.484;-8.540;2023-02-08T06:34:18;5.68;;;3.35;;
64186;SDS011;50491;39.484;-8.540;2023-02-08T06:36:19;5.22;;;3.10;;
64186;SDS011;50491;39.484;-8.540;2023-02-08T06:38:20;4.90;;;3.17;;
64186;SDS011;50491;39.484;-8.540;2023-02-08T06:40:39;3.83;;;3.40;;
64186;SDS011;50491;39.484;-8.540;2023-02-08T06:42:58;7.47;;;3.58;;
64186;SDS011;50491;39.484;-8.540;2023-02-08T06:44:59;4.13;;;3.42;;
64186;SDS011;50491;39.484;-8.540;2023-02-08T06:46:59;5.82;;;3.20;;
64186;SDS011;50491;39.484;-8.540;2023-02-08T06:49:00;3.30;;;3.00;;
64186;SDS011;50491;39.484;-8.540;2023-02-08T06:51:01;4.57;;;3.50;;
64186;SDS011;50491;39.484;-8.540;2023-02-08T06:53:02;8.73;;;3.40;;
64186;SDS011;50491;39.484;-8.540;2023-02-08T06:55:21;8.05;;;3.53;;
64186;SDS011;50491;39.484;-8.540;2023-02-08T06:57:22;6.28;;;3.20;;
64186;SDS011;50491;39.484;-8.540;2023-02-08T06:59:23;3.80;;;3.40;;
64186;SDS011;50491;39.484;-8.540;2023-02-08T07:02:11;4.85;;;2.95;;
64186;SDS011;50491;39.484;-8.540;2023-02-08T07:04:12;4.35;;;3.00;;
64186;SDS011;50491;39.484;-8.540;2023-02-08T07:06:28;3.17;;;2.88;;
64186;SDS011;50491;39.484;-8.540;2023-02-08T07:08:29;3.83;;;2.80;;
64186;SDS011;50491;39.484;-8.540;2023-02-08T07:10:29;3.38;;;3.05;;
64186;SDS011;50491;39.484;-8.540;2023-02-08T07:12:33;3.33;;;3.00;;
64186;SDS011;50491;39.484;-8.540;2023-02-08T07:19:50;3.67;;;3.38;;
64186;SDS011;50491;39.484;-8.540;2023-02-08T07:21:51;9.45;;;3.92;;
64186;SDS011;50491;39.484;-8.540;2023-02-08T07:23:52;5.75;;;3.30;;
64186;SDS011;50491;39.484;-8.540;2023-02-08T07:25:56;6.50;;;4.05;;
64186;SDS011;50491;39.484;-8.540;2023-02-08T07:30:35;5.47;;;3.40;;
64186;SDS011;50491;39.484;-8.540;2023-02-08T07:32:36;4.82;;;3.40;;
64186;SDS011;50491;39.484;-8.540;2023-02-08T07:34:36;6.70;;;3.80;;
64186;SDS011;50491;39.484;-8.540;2023-02-08T07:36:58;3.80;;;3.22;;
64186;SDS011;50491;39.484;-8.540;2023-02-08T07:39:17;6.50;;;3.47;;
64186;SDS011;50491;39.484;-8.540;2023-02-08T07:43:37;5.10;;;3.28;;
64186;SDS011;50491;39.484;-8.540;2023-02-08T07:45:39;3.92;;;3.53;;
64186;SDS011;50491;39.484;-8.540;2023-02-08T07:48:16;5.43;;;3.78;;
64186;SDS011;50491;39.484;-8.540;2023-02-08T07:50:17;4.70;;;3.83;;
64186;SDS011;50491;39.484;-8.540;2023-02-08T07:52:18;7.95;;;3.85;;
64186;SDS011;50491;39.484;-8.540;2023-02-08T07:54:18;4.60;;;4.18;;
64186;SDS011;50491;39.484;-8.540;2023-02-08T07:56:19;3.70;;;3.40;;
64186;SDS011;50491;39.484;-8.540;2023-02-08T07:58:20;5.10;;;3.47;;
64186;SDS011;50491;39.484;-8.540;2023-02-08T08:00:20;4.93;;;3.78;;
64186;SDS011;50491;39.484;-8.540;2023-02-08T08:02:21;7.97;;;4.20;;
64186;SDS011;50491;39.484;-8.540;2023-02-08T08:04:23;5.00;;;3.30;;
64186;SDS011;50491;39.484;-8.540;2023-02-08T08:06:42;6.47;;;3.90;;
64186;SDS011;50491;39.484;-8.540;2023-02-08T08:09:01;6.45;;;3.67;;
64186;SDS011;50491;39.484;-8.540;2023-02-08T08:11:17;5.60;;;3.70;;
64186;SDS011;50491;39.484;-8.540;2023-02-08T08:13:19;4.85;;;3.92;;
64186;SDS011;50491;39.484;-8.540;2023-02-08T08:15:20;8.05;;;3.40;;
64186;SDS011;50491;39.484;-8.540;2023-02-08T08:17:21;3.47;;;3.00;;
64186;SDS011;50491;39.484;-8.540;2023-02-08T08:19:40;6.40;;;4.35;;
64186;SDS011;50491;39.484;-8.540;2023-02-08T08:21:41;4.55;;;3.83;;
64186;SDS011;50491;39.484;-8.540;2023-02-08T08:24:00;4.45;;;3.67;;
64186;SDS011;50491;39.484;-8.540;2023-02-08T08:26:19;6.47;;;3.72;;
64186;SDS011;50491;39.484;-8.540;2023-02-08T08:28:39;4.07;;;3.67;;
64186;SDS011;50491;39.484;-8.540;2023-02-08T08:30:42;4.80;;;3.88;;
64186;SDS011;50491;39.484;-8.540;2023-02-08T08:33:08;5.22;;;3.88;;
64186;SDS011;50491;39.484;-8.540;2023-02-08T08:37:46;4.53;;;3.83;;
64186;SDS011;50491;39.484;-8.540;2023-02-08T08:39:47;4.65;;;4.03;;
64186;SDS011;50491;39.484;-8.540;2023-02-08T08:42:06;3.80;;;3.47;;
64186;SDS011;50491;39.484;-8.540;2023-02-08T08:44:26;3.95;;;3.65;;
64186;SDS011;50491;39.484;-8.540;2023-02-08T08:46:45;4.90;;;3.65;;
64186;SDS011;50491;39.484;-8.540;2023-02-08T08:49:04;6.20;;;4.05;;
64186;SDS011;50491;39.484;-8.540;2023-02-08T08:51:05;4.18;;;3.45;;
64186;SDS011;50491;39.484;-8.540;2023-02-08T08:53:31;5.55;;;4.18;;
64186;SDS011;50491;39.484;-8.540;2023-02-08T08:55:32;13.85;;;4.00;;
64186;SDS011;50491;39.484;-8.540;2023-02-08T08:57:33;5.38;;;3.97;;
64186;SDS011;50491;39.484;-8.540;2023-02-08T08:59:34;4.53;;;3.63;;
64186;SDS011;50491;39.484;-8.540;2023-02-08T09:01:34;5.93;;;3.92;;
64186;SDS011;50491;39.484;-8.540;2023-02-08T09:03:35;5.03;;;3.90;;
64186;SDS011;50491;39.484;-8.540;2023-02-08T09:05:36;4.32;;;3.92;;
64186;SDS011;50491;39.484;-8.540;2023-02-08T09:07:36;5.80;;;3.92;;
64186;SDS011;50491;39.484;-8.540;2023-02-08T09:09:37;4.13;;;3.72;;
64186;SDS011;50491;39.484;-8.540;2023-02-08T09:11:38;4.28;;;3.88;;
64186;SDS011;50491;39.484;-8.540;2023-02-08T09:13:39;6.97;;;3.65;;
64186;SDS011;50491;39.484;-8.540;2023-02-08T09:15:40;5.78;;;3.20;;
64186;SDS011;50491;39.484;-8.540;2023-02-08T09:17:41;15.48;;;4.43;;
64186;SDS011;50491;39.484;-8.540;2023-02-08T09:19:43;5.70;;;4.45;;
64186;SDS011;50491;39.484;-8.540;2023-02-08T09:21:45;5.55;;;4.18;;
64186;SDS011;50491;39.484;-8.540;2023-02-08T09:23:46;5.15;;;3.63;;
64186;SDS011;50491;39.484;-8.540;2023-02-08T09:25:47;4.55;;;3.92;;
64186;SDS011;50491;39.484;-8.540;2023-02-08T09:28:06;9.07;;;5.72;;
64186;SDS011;50491;39.484;-8.540;2023-02-08T09:30:07;6.82;;;4.50;;
64186;SDS011;50491;39.484;-8.540;2023-02-08T09:32:29;9.10;;;5.57;;
64186;SDS011;50491;39.484;-8.540;2023-02-08T09:34:51;6.50;;;4.33;;
64186;SDS011;50491;39.484;-8.540;2023-02-08T09:37:10;6.75;;;3.63;;
64186;SDS011;50491;39.484;-8.540;2023-02-08T09:39:13;5.35;;;3.42;;
64186;SDS011;50491;39.484;-8.540;2023-02-08T09:52:20;3.35;;;2.78;;
64186;SDS011;50491;39.484;-8.540;2023-02-08T09:54:36;3.83;;;2.97;;
64186;SDS011;50491;39.484;-8.540;2023-02-08T09:56:39;5.05;;;2.90;;
64186;SDS011;50491;39.484;-8.540;2023-02-08T09:58:42;3.45;;;3.08;;
64186;SDS011;50491;39.484;-8.540;2023-02-08T10:00:48;4.63;;;2.88;;
64186;SDS011;50491;39.484;-8.540;2023-02-08T10:05:37;4.00;;;3.20;;
64186;SDS011;50491;39.484;-8.540;2023-02-08T10:07:38;3.22;;;2.92;;
64186;SDS011;50491;39.484;-8.540;2023-02-08T10:09:59;3.15;;;2.80;;
64186;SDS011;50491;39.484;-8.540;2023-02-08T10:20:35;4.28;;;3.55;;
64186;SDS011;50491;39.484;-8.540;2023-02-08T10:25:55;3.70;;;3.40;;
64186;SDS011;50491;39.484;-8.540;2023-02-08T10:30:27;3.53;;;3.17;;
64186;SDS011;50491;39.484;-8.540;2023-02-08T10:38:21;3.40;;;2.90;;
64186;SDS011;50491;39.484;-8.540;2023-02-08T10:40:37;3.40;;;3.10;;
64186;SDS011;50491;39.484;-8.540;2023-02-08T10:42:39;2.72;;;2.53;;
64186;SDS011;50491;39.484;-8.540;2023-02-08T10:44:46;3.22;;;2.88;;
64186;SDS011;50491;39.484;-8.540;2023-02-08T10:51:58;5.60;;;3.35;;
64186;SDS011;50491;39.484;-8.540;2023-02-08T10:53:59;3.40;;;3.10;;
64186;SDS011;50491;39.484;-8.540;2023-02-08T10:56:00;2.80;;;2.60;;
64186;SDS011;50491;39.484;-8.540;2023-02-08T11:00:28;5.60;;;3.30;;
64186;SDS011;50491;39.484;-8.540;2023-02-08T11:02:31;4.32;;;3.03;;
64186;SDS011;50491;39.484;-8.540;2023-02-08T11:04:33;3.65;;;3.00;;
64186;SDS011;50491;39.484;-8.540;2023-02-08T11:06:56;3.88;;;3.08;;
64186;SDS011;50491;39.484;-8.540;2023-02-08T11:08:56;4.05;;;2.95;;
64186;SDS011;50491;39.484;-8.540;2023-02-08T11:11:08;3.70;;;2.55;;
64186;SDS011;50491;39.484;-8.540;2023-02-08T11:15:23;2.60;;;2.40;;
64186;SDS011;50491;39.484;-8.540;2023-02-08T11:17:56;3.17;;;2.75;;
64186;SDS011;50491;39.484;-8.540;2023-02-08T11:19:59;2.60;;;2.40;;
64186;SDS011;50491;39.484;-8.540;2023-02-08T11:22:00;5.55;;;3.35;;
64186;SDS011;50491;39.484;-8.540;2023-02-08T11:26:30;2.33;;;2.13;;
64186;SDS011;50491;39.484;-8.540;2023-02-08T11:28:37;3.72;;;2.60;;
64186;SDS011;50491;39.484;-8.540;2023-02-08T11:30:37;4.88;;;2.80;;
64186;SDS011;50491;39.484;-8.540;2023-02-08T11:33:30;6.40;;;2.75;;
64186;SDS011;50491;39.484;-8.540;2023-02-08T11:35:25;4.13;;;2.83;;
64186;SDS011;50491;39.484;-8.540;2023-02-08T11:37:26;2.85;;;2.13;;
64186;SDS011;50491;39.484;-8.540;2023-02-08T11:41:55;3.35;;;2.58;;
64186;SDS011;50491;39.484;-8.540;2023-02-08T11:44:04;3.70;;;2.72;;
64186;SDS011;50491;39.484;-8.540;2023-02-08T11:46:06;2.95;;;2.47;;
64186;SDS011;50491;39.484;-8.540;2023-02-08T11:48:13;6.15;;;2.60;;
64186;SDS011;50491;39.484;-8.540;2023-02-08T11:50:25;3.83;;;2.53;;
64186;SDS011;50491;39.484;-8.540;2023-02-08T11:52:50;2.95;;;2.58;;
64186;SDS011;50491;39.484;-8.540;2023-02-08T11:57:20;3.53;;;2.30;;
64186;SDS011;50491;39.484;-8.540;2023-02-08T11:59:22;3.63;;;2.22;;
64186;SDS011;50491;39.484;-8.540;2023-02-08T12:01:28;6.47;;;2.30;;
64186;SDS011;50491;39.484;-8.540;2023-02-08T12:03:36;3.38;;;1.95;;
64186;SDS011;50491;39.484;-8.540;2023-02-08T12:05:43;3.47;;;2.38;;
64186;SDS011;50491;39.484;-8.540;2023-02-08T12:10:40;3.65;;;3.35;;
64186;SDS011;50491;39.484;-8.540;2023-02-08T12:13:01;4.30;;;2.88;;
64186;SDS011;50491;39.484;-8.540;2023-02-08T12:20:36;2.90;;;2.65;;
64186;SDS011;50491;39.484;-8.540;2023-02-08T12:22:39;4.50;;;3.20;;
64186;SDS011;50491;39.484;-8.540;2023-02-08T12:27:41;5.05;;;3.13;;
64186;SDS011;50491;39.484;-8.540;2023-02-08T12:30:28;3.80;;;2.75;;
64186;SDS011;50491;39.484;-8.540;2023-02-08T12:39:36;3.08;;;2.20;;
64186;SDS011;50491;39.484;-8.540;2023-02-08T12:53:49;3.22;;;1.98;;
64186;SDS011;50491;39.484;-8.540;2023-02-08T12:56:17;3.63;;;2.38;;
64186;SDS011;50491;39.484;-8.540;2023-02-08T12:58:21;3.85;;;2.80;;
64186;SDS011;50491;39.484;-8.540;2023-02-08T13:00:28;4.05;;;2.50;;
64186;SDS011;50491;39.484;-8.540;2023-02-08T13:02:36;5.47;;;2.95;;
64186;SDS011;50491;39.484;-8.540;2023-02-08T13:04:47;3.58;;;2.58;;
64186;SDS011;50491;39.484;-8.540;2023-02-08T13:07:19;4.10;;;2.40;;
64186;SDS011;50491;39.484;-8.540;2023-02-08T13:11:38;4.82;;;2.85;;
64186;SDS011;50491;39.484;-8.540;2023-02-08T13:14:44;4.60;;;2.80;;
64186;SDS011;50491;39.484;-8.540;2023-02-08T13:16:59;6.38;;;2.85;;
64186;SDS011;50491;39.484;-8.540;2023-02-08T13:21:15;5.00;;;2.20;;
64186;SDS011;50491;39.484;-8.540;2023-02-08T13:23:50;2.47;;;2.20;;
64186;SDS011;50491;39.484;-8.540;2023-02-08T13:26:10;3.25;;;2.80;;
64186;SDS011;50491;39.484;-8.540;2023-02-08T13:28:18;3.80;;;2.78;;
64186;SDS011;50491;39.484;-8.540;2023-02-08T13:30:21;7.22;;;2.85;;
64186;SDS011;50491;39.484;-8.540;2023-02-08T13:34:42;2.63;;;2.42;;
64186;SDS011;50491;39.484;-8.540;2023-02-08T13:36:49;3.55;;;2.85;;
64186;SDS011;50491;39.484;-8.540;2023-02-08T13:41:51;3.10;;;2.80;;
64186;SDS011;50491;39.484;-8.540;2023-02-08T13:44:19;4.43;;;3.15;;
64186;SDS011;50491;39.484;-8.540;2023-02-08T13:46:21;3.90;;;2.50;;
64186;SDS011;50491;39.484;-8.540;2023-02-08T13:48:24;5.13;;;3.88;;
64186;SDS011;50491;39.484;-8.540;2023-02-08T13:54:33;6.90;;;3.17;;
64186;SDS011;50491;39.484;-8.540;2023-02-08T13:56:44;3.30;;;2.55;;
64186;SDS011;50491;39.484;-8.540;2023-02-08T14:07:50;4.57;;;2.30;;
64186;SDS011;50491;39.484;-8.540;2023-02-08T14:13:15;3.50;;;2.70;;
64186;SDS011;50491;39.484;-8.540;2023-02-08T14:15:43;8.10;;;2.50;;
64186;SDS011;50491;39.484;-8.540;2023-02-08T14:17:47;3.55;;;2.35;;
64186;SDS011;50491;39.484;-8.540;2023-02-08T14:20:42;2.90;;;2.47;;
64186;SDS011;50491;39.484;-8.540;2023-02-08T14:22:39;3.47;;;2.47;;
64186;SDS011;50491;39.484;-8.540;2023-02-08T14:25:03;2.80;;;2.60;;
64186;SDS011;50491;39.484;-8.540;2023-02-08T14:27:26;6.97;;;2.80;;
64186;SDS011;50491;39.484;-8.540;2023-02-08T14:30:02;2.47;;;2.10;;
64186;SDS011;50491;39.484;-8.540;2023-02-08T14:32:32;2.80;;;2.22;;
64186;SDS011;50491;39.484;-8.540;2023-02-08T14:34:37;4.50;;;2.22;;
64186;SDS011;50491;39.484;-8.540;2023-02-08T14:36:38;4.50;;;2.30;;
64186;SDS011;50491;39.484;-8.540;2023-02-08T14:41:06;3.25;;;2.25;;
64186;SDS011;50491;39.484;-8.540;2023-02-08T14:45:53;4.53;;;2.17;;
64186;SDS011;50491;39.484;-8.540;2023-02-08T14:50:27;3.65;;;2.20;;
64186;SDS011;50491;39.484;-8.540;2023-02-08T14:55:46;3.30;;;2.25;;
64186;SDS011;50491;39.484;-8.540;2023-02-08T14:58:06;1.98;;;1.80;;
64186;SDS011;50491;39.484;-8.540;2023-02-08T15:00:16;5.35;;;2.40;;
64186;SDS011;50491;39.484;-8.540;2023-02-08T15:02:45;2.10;;;1.95;;
64186;SDS011;50491;39.484;-8.540;2023-02-08T15:04:46;2.70;;;2.30;;
64186;SDS011;50491;39.484;-8.540;2023-02-08T15:09:41;3.75;;;2.33;;
64186;SDS011;50491;39.484;-8.540;2023-02-08T15:11:46;13.27;;;3.35;;
64186;SDS011;50491;39.484;-8.540;2023-02-08T15:13:58;18.27;;;4.05;;
64186;SDS011;50491;39.484;-8.540;2023-02-08T15:16:01;11.10;;;2.30;;
64186;SDS011;50491;39.484;-8.540;2023-02-08T15:18:03;6.50;;;2.88;;
64186;SDS011;50491;39.484;-8.540;2023-02-08T15:20:06;4.78;;;2.30;;
64186;SDS011;50491;39.484;-8.540;2023-02-08T15:22:14;5.57;;;2.20;;
64186;SDS011;50491;39.484;-8.540;2023-02-08T15:24:28;17.05;;;2.88;;
64186;SDS011;50491;39.484;-8.540;2023-02-08T15:26:28;2.97;;;2.10;;
64186;SDS011;50491;39.484;-8.540;2023-02-08T15:28:30;5.13;;;2.33;;
64186;SDS011;50491;39.484;-8.540;2023-02-08T15:30:35;3.75;;;2.13;;
64186;SDS011;50491;39.484;-8.540;2023-02-08T15:32:37;3.70;;;2.10;;
64186;SDS011;50491;39.484;-8.540;2023-02-08T15:34:41;2.78;;;2.10;;
64186;SDS011;50491;39.484;-8.540;2023-02-08T15:36:51;2.63;;;1.83;;
64186;SDS011;50491;39.484;-8.540;2023-02-08T15:38:53;2.38;;;1.80;;
64186;SDS011;50491;39.484;-8.540;2023-02-08T15:41:15;2.88;;;2.08;;
64186;SDS011;50491;39.484;-8.540;2023-02-08T15:43:49;2.40;;;1.73;;
64186;SDS011;50491;39.484;-8.540;2023-02-08T15:46:22;3.55;;;1.90;;
64186;SDS011;50491;39.484;-8.540;2023-02-08T15:48:50;2.13;;;1.60;;
64186;SDS011;50491;39.484;-8.540;2023-02-08T15:50:52;2.90;;;1.80;;
64186;SDS011;50491;39.484;-8.540;2023-02-08T15:53:12;3.13;;;2.00;;
64186;SDS011;50491;39.484;-8.540;2023-02-08T15:55:14;5.65;;;2.20;;
64186;SDS011;50491;39.484;-8.540;2023-02-08T15:57:31;5.75;;;2.28;;
64186;SDS011;50491;39.484;-8.540;2023-02-08T15:59:36;4.72;;;2.10;;
64186;SDS011;50491;39.484;-8.540;2023-02-08T16:04:22;1.52;;;1.40;;
64186;SDS011;50491;39.484;-8.540;2023-02-08T16:06:25;2.53;;;1.90;;
64186;SDS011;50491;39.484;-8.540;2023-02-08T16:08:28;2.85;;;2.03;;
64186;SDS011;50491;39.484;-8.540;2023-02-08T16:10:33;4.55;;;2.17;;
64186;SDS011;50491;39.484;-8.540;2023-02-08T16:12:38;22.73;;;2.65;;